Главная страница
METAR-TAF:

METAR-TAF

Аэропорты :

Dzaoudzi, Майотта

широта: 12-48S, долгота: 045-17E, высота над уровнем моря: 8 м

Текущие метеонаблюдения

Эта сводка был подготовлена 23 минут назад, в 10:00 UTC
Ветер 6 Узел от западный
Температура 29°C
Влажность 79%
Давление 1011 hPa
Видимость 10 км и более

METAR: FMCZ 261000Z AUTO 28006KT 9999 ///TCU 29/25 Q1011 TEMPO 4000 SHRA FEW018CB SCT022TCU

Время: 13:23 (10:23 UTC)

Прогноз

Эта сводка был подготовлена 5 часа и 23 минут назад, в 05:00 UTC
Прогноз действительный с 26-го 06 UTC до 27-го 06 UTC
Ветер 2 Узел переменных направлений
Видимость 10 км и более
небольшая облачность на высоте 2000 фута
Вероятность 30% :
временами
С 26-го 08 UTC до 26-го 14 UTC
Видимость: 4000 м
небольшая облачность на высоте 1800 фута, Кучево-дождевые.
Отдельные облака на высоте 2200 фута, мощно-кучевые.
ливневые дожди

TAF: FMCZ 260500Z 2606/2706 VRB02KT 9999 FEW020 PROB30 TEMPO 2608/2614 4000 SHRA FEW018CB SCT022TCU

Метеонаблюдения и прогнозы для более 4000 аэропортов (сводки METAR и TAF).

Имеющиеся станции представлены на карте желтыми и красными точками.

Чтобы увидеть название станции, наведите на нее мышь.

Затем щелкните, чтобы увидеть метеонаблюдения и метеопрогнозы.

Управление картой: чтобы увеличить масштаб, щелкните зеленые кнопки с черным крестиком; чтобы уменьшить масштаб, щелкните зеленую кнопку с тире; для просмотра соседних карт щелкайте зеленые стрелки.


METAR-TAF: